createdAt,value
2019-06-26T00:00:38.349Z,1002.73
2019-06-26T00:01:38.399Z,1002.77
2019-06-26T00:02:38.383Z,1002.72
2019-06-26T00:03:38.330Z,1002.65
2019-06-26T00:04:38.297Z,1002.67
2019-06-26T00:05:38.288Z,1002.70
2019-06-26T00:06:38.296Z,1002.74
2019-06-26T00:07:38.262Z,1002.69
2019-06-26T00:08:38.312Z,1002.69
2019-06-26T00:09:38.244Z,1002.67
2019-06-26T00:10:38.228Z,1002.71
2019-06-26T00:11:38.220Z,1002.72
2019-06-26T00:12:38.209Z,1002.66
2019-06-26T00:13:38.196Z,1002.70
2019-06-26T00:14:39.034Z,1002.78
2019-06-26T00:15:38.172Z,1002.76
2019-06-26T00:16:38.160Z,1002.72
2019-06-26T00:17:38.151Z,1002.78
2019-06-26T00:18:38.141Z,1002.76
2019-06-26T00:19:38.126Z,1002.83
2019-06-26T00:20:38.172Z,1002.85
2019-06-26T00:21:38.106Z,1002.79
2019-06-26T00:22:38.092Z,1002.78
2019-06-26T00:23:38.082Z,1002.83
2019-06-26T00:24:38.117Z,1002.78
2019-06-26T00:25:38.084Z,1002.83
2019-06-26T00:26:38.100Z,1002.79
2019-06-26T00:27:38.048Z,1002.80
2019-06-26T00:28:38.025Z,1002.85
2019-06-26T00:29:38.018Z,1002.84
2019-06-26T00:30:38.005Z,1002.89
2019-06-26T00:31:37.991Z,1002.90
2019-06-26T00:32:38.024Z,1002.87
2019-06-26T00:33:37.968Z,1002.88
2019-06-26T00:34:38.121Z,1002.93
2019-06-26T00:35:37.947Z,1002.91
2019-06-26T00:36:37.938Z,1002.94
2019-06-26T00:37:38.168Z,1002.87
2019-06-26T00:38:40.077Z,1002.88
2019-06-26T00:39:37.926Z,1002.94
2019-06-26T00:40:37.892Z,1002.85
2019-06-26T00:41:37.879Z,1002.90
2019-06-26T00:42:37.873Z,1002.86
2019-06-26T00:43:42.240Z,1002.95
2019-06-26T00:44:37.848Z,1002.90
2019-06-26T00:45:37.834Z,1002.93
2019-06-26T00:46:37.823Z,1002.90
2019-06-26T00:47:37.811Z,1002.94
2019-06-26T00:48:37.801Z,1002.92
2019-06-26T00:49:37.846Z,1002.88
2019-06-26T00:50:37.778Z,1002.91
2019-06-26T00:51:37.772Z,1002.97
2019-06-26T00:52:37.757Z,1002.88
2019-06-26T00:53:37.747Z,1002.98
2019-06-26T00:54:37.735Z,1002.97
2019-06-26T00:55:37.782Z,1002.92
2019-06-26T00:56:38.233Z,1002.94
2019-06-26T00:57:37.717Z,1002.91
2019-06-26T00:58:37.689Z,1002.93
2019-06-26T00:59:37.678Z,1002.93
2019-06-26T01:00:37.668Z,1002.89
2019-06-26T01:01:37.858Z,1002.89
2019-06-26T01:02:37.642Z,1002.94
2019-06-26T01:03:37.632Z,1002.90
2019-06-26T01:04:37.620Z,1002.91
2019-06-26T01:05:37.621Z,1003.03
2019-06-26T01:06:37.599Z,1002.94
2019-06-26T01:07:37.645Z,1002.99
2019-06-26T01:08:37.575Z,1002.99
2019-06-26T01:09:37.563Z,1002.95
2019-06-26T01:10:37.552Z,1002.93
2019-06-26T01:11:37.541Z,1002.90
2019-06-26T01:12:37.531Z,1002.94
2019-06-26T01:13:37.577Z,1002.92
2019-06-26T01:14:37.518Z,1002.90
2019-06-26T01:15:37.497Z,1002.93
2019-06-26T01:16:37.485Z,1002.93
2019-06-26T01:17:37.476Z,1002.93
2019-06-26T01:18:37.468Z,1002.94
2019-06-26T01:19:37.685Z,1002.93
2019-06-26T01:20:37.440Z,1002.92
2019-06-26T01:21:37.430Z,1002.89
2019-06-26T01:22:37.426Z,1002.93
2019-06-26T01:23:37.408Z,1002.95
2019-06-26T01:24:37.394Z,1002.90
2019-06-26T01:25:37.438Z,1002.91
2019-06-26T01:26:37.377Z,1002.87
2019-06-26T01:27:37.358Z,1002.91
2019-06-26T01:28:37.347Z,1002.93
2019-06-26T01:29:37.335Z,1002.87
2019-06-26T01:30:37.323Z,1002.88
2019-06-26T01:31:37.530Z,1002.89
2019-06-26T01:32:37.305Z,1003.01
2019-06-26T01:33:37.289Z,1002.92
2019-06-26T01:34:37.276Z,1002.96
2019-06-26T01:35:37.272Z,1002.99
2019-06-26T01:36:37.255Z,1002.99
2019-06-26T01:37:37.310Z,1002.96
2019-06-26T01:38:37.231Z,1002.99
2019-06-26T01:39:37.219Z,1002.96
2019-06-26T01:40:37.207Z,1003.01
2019-06-26T01:41:37.196Z,1002.93
2019-06-26T01:42:37.198Z,1002.98
2019-06-26T01:43:37.236Z,1002.98
2019-06-26T01:44:37.161Z,1002.93
2019-06-26T01:45:37.191Z,1002.97
2019-06-26T01:46:37.138Z,1002.98
2019-06-26T01:47:37.134Z,1003.01
2019-06-26T01:48:37.117Z,1002.96
2019-06-26T01:49:37.169Z,1003.03
2019-06-26T01:50:37.091Z,1002.97
2019-06-26T01:51:37.081Z,1002.96
2019-06-26T01:52:37.085Z,1002.98
2019-06-26T01:53:37.058Z,1002.98
2019-06-26T01:54:37.055Z,1003.03
2019-06-26T01:55:37.085Z,1002.94
2019-06-26T01:56:37.027Z,1003.04
2019-06-26T01:57:37.010Z,1002.97
2019-06-26T01:58:37.066Z,1002.99
2019-06-26T01:59:36.989Z,1003.01
2019-06-26T02:00:36.976Z,1003.08
2019-06-26T02:01:36.964Z,1003.00
2019-06-26T02:02:36.954Z,1002.98
2019-06-26T02:03:36.942Z,1003.09
2019-06-26T02:04:37.142Z,1003.07
2019-06-26T02:05:36.928Z,1003.10
2019-06-26T02:06:36.995Z,1003.05
2019-06-26T02:07:36.928Z,1002.98
2019-06-26T02:08:36.886Z,1002.98
2019-06-26T02:09:36.872Z,1003.09
2019-06-26T02:10:36.927Z,1003.04
2019-06-26T02:11:36.851Z,1003.06
2019-06-26T02:12:36.840Z,1003.13
2019-06-26T02:13:36.829Z,1003.04
2019-06-26T02:14:36.815Z,1003.08
2019-06-26T02:15:36.804Z,1003.10
2019-06-26T02:16:36.854Z,1003.07
2019-06-26T02:17:36.822Z,1003.09
2019-06-26T02:18:36.770Z,1003.03
2019-06-26T02:19:36.761Z,1002.98
2019-06-26T02:20:36.750Z,1003.00
2019-06-26T02:21:36.747Z,1002.99
2019-06-26T02:22:36.938Z,1003.06
2019-06-26T02:23:36.726Z,1002.98
2019-06-26T02:24:36.702Z,1003.01
2019-06-26T02:25:36.693Z,1003.05
2019-06-26T02:26:36.679Z,1002.95
2019-06-26T02:27:36.670Z,1002.94
2019-06-26T02:28:36.869Z,1003.03
2019-06-26T02:29:36.652Z,1002.98
2019-06-26T02:30:36.635Z,1002.93
2019-06-26T02:31:36.625Z,1002.92
2019-06-26T02:32:36.614Z,1002.94
2019-06-26T02:33:36.600Z,1002.98
2019-06-26T02:34:36.800Z,1002.94
2019-06-26T02:35:36.584Z,1002.96
2019-06-26T02:36:36.571Z,1002.91
2019-06-26T02:37:36.559Z,1002.96
2019-06-26T02:38:36.546Z,1003.00
2019-06-26T02:39:36.539Z,1003.00
2019-06-26T02:40:36.738Z,1003.04
2019-06-26T02:41:36.511Z,1003.01
2019-06-26T02:42:36.499Z,1002.97
2019-06-26T02:43:36.495Z,1002.95
2019-06-26T02:44:52.160Z,1002.97
2019-06-26T02:45:37.685Z,1003.01
2019-06-26T02:46:36.456Z,1003.00
2019-06-26T02:47:36.451Z,1003.01
2019-06-26T02:48:36.434Z,1002.95
2019-06-26T02:49:36.422Z,1003.02
2019-06-26T02:50:36.415Z,1002.97
2019-06-26T02:51:36.459Z,1002.99
2019-06-26T02:52:36.389Z,1002.89
2019-06-26T02:53:36.378Z,1002.91
2019-06-26T02:54:36.369Z,1002.90
2019-06-26T02:55:36.362Z,1002.87
2019-06-26T02:56:36.343Z,1002.90
2019-06-26T02:57:36.409Z,1002.95
2019-06-26T02:58:36.321Z,1002.93
2019-06-26T02:59:36.310Z,1002.93
2019-06-26T03:00:36.300Z,1002.94
2019-06-26T03:01:36.288Z,1002.94
2019-06-26T03:02:36.280Z,1002.89
2019-06-26T03:03:36.329Z,1002.97
2019-06-26T03:04:36.254Z,1002.94
2019-06-26T03:05:36.244Z,1002.91
2019-06-26T03:06:36.232Z,1002.91
2019-06-26T03:07:36.245Z,1003.00
2019-06-26T03:08:36.212Z,1002.96
2019-06-26T03:09:36.264Z,1003.02
2019-06-26T03:10:36.189Z,1002.94
2019-06-26T03:11:36.181Z,1003.02
2019-06-26T03:12:36.165Z,1002.98
2019-06-26T03:13:36.158Z,1003.04
2019-06-26T03:14:36.150Z,1003.04
2019-06-26T03:15:36.387Z,1003.01
2019-06-26T03:16:36.122Z,1003.04
2019-06-26T03:17:36.110Z,1003.08
2019-06-26T03:18:36.098Z,1003.04
2019-06-26T03:19:36.087Z,1003.05
2019-06-26T03:20:36.085Z,1003.03
2019-06-26T03:21:36.279Z,1003.03
2019-06-26T03:22:36.055Z,1003.10
2019-06-26T03:23:36.044Z,1003.09
2019-06-26T03:24:36.031Z,1003.07
2019-06-26T03:25:36.078Z,1003.07
2019-06-26T03:26:36.009Z,1003.16
2019-06-26T03:27:36.061Z,1003.15
2019-06-26T03:28:35.996Z,1003.13
2019-06-26T03:29:35.976Z,1003.15
2019-06-26T03:30:35.965Z,1003.14
2019-06-26T03:31:35.956Z,1003.18
2019-06-26T03:32:35.946Z,1003.21
2019-06-26T03:33:35.993Z,1003.16
2019-06-26T03:34:35.922Z,1003.15
2019-06-26T03:35:35.909Z,1003.19
2019-06-26T03:36:35.900Z,1003.16
2019-06-26T03:37:35.886Z,1003.14
2019-06-26T03:38:35.876Z,1003.19
2019-06-26T03:39:35.930Z,1003.19
2019-06-26T03:40:35.863Z,1003.23
2019-06-26T03:41:35.843Z,1003.16
2019-06-26T03:42:35.832Z,1003.23
2019-06-26T03:43:35.917Z,1003.21
2019-06-26T03:44:35.810Z,1003.29
2019-06-26T03:45:35.853Z,1003.25
2019-06-26T03:46:35.787Z,1003.21
2019-06-26T03:47:35.778Z,1003.21
2019-06-26T03:48:35.764Z,1003.31
2019-06-26T03:49:35.815Z,1003.24
2019-06-26T03:50:35.741Z,1003.26
2019-06-26T03:51:35.762Z,1003.30
2019-06-26T03:52:35.720Z,1003.30
2019-06-26T03:53:35.708Z,1003.28
2019-06-26T03:54:35.696Z,1003.30
2019-06-26T03:55:35.745Z,1003.29
2019-06-26T03:56:35.674Z,1003.27
2019-06-26T03:57:35.663Z,1003.33
2019-06-26T03:58:35.653Z,1003.34
2019-06-26T03:59:35.652Z,1003.35
2019-06-26T04:00:35.638Z,1003.34
2019-06-26T04:01:35.682Z,1003.32
2019-06-26T04:02:35.606Z,1003.31
2019-06-26T04:03:35.595Z,1003.28
2019-06-26T04:04:35.586Z,1003.31
2019-06-26T04:05:35.773Z,1003.27
2019-06-26T04:06:35.561Z,1003.34
2019-06-26T04:07:35.616Z,1003.32
2019-06-26T04:08:35.542Z,1003.25
2019-06-26T04:09:35.531Z,1003.39
2019-06-26T04:10:35.518Z,1003.35
2019-06-26T04:11:35.508Z,1003.38
2019-06-26T04:12:35.497Z,1003.28
2019-06-26T04:13:35.707Z,1003.32
2019-06-26T04:14:35.483Z,1003.30
2019-06-26T04:15:42.222Z,1003.28
2019-06-26T04:16:36.451Z,1003.33
2019-06-26T04:17:35.438Z,1003.30
2019-06-26T04:18:35.425Z,1003.29
2019-06-26T04:19:35.478Z,1003.34
2019-06-26T04:20:35.403Z,1003.29
2019-06-26T04:21:35.444Z,1003.36
2019-06-26T04:22:35.380Z,1003.27
2019-06-26T04:23:35.372Z,1003.34
2019-06-26T04:24:35.355Z,1003.31
2019-06-26T04:25:38.122Z,1003.37
2019-06-26T04:26:35.334Z,1003.39
2019-06-26T04:27:35.320Z,1003.37
2019-06-26T04:28:35.310Z,1003.32
2019-06-26T04:29:35.302Z,1003.32
2019-06-26T04:30:35.285Z,1003.29
2019-06-26T04:31:35.338Z,1003.36
2019-06-26T04:32:35.262Z,1003.37
2019-06-26T04:33:35.254Z,1003.37
2019-06-26T04:34:35.243Z,1003.32
2019-06-26T04:35:35.227Z,1003.27
2019-06-26T04:36:35.218Z,1003.40
2019-06-26T04:37:35.279Z,1003.37
2019-06-26T04:38:35.192Z,1003.36
2019-06-26T04:39:35.182Z,1003.39
2019-06-26T04:40:35.169Z,1003.44
2019-06-26T04:41:35.158Z,1003.46
2019-06-26T04:42:35.146Z,1003.43
2019-06-26T04:43:35.349Z,1003.41
2019-06-26T04:44:35.122Z,1003.40
2019-06-26T04:45:35.114Z,1003.49
2019-06-26T04:46:35.100Z,1003.47
2019-06-26T04:47:35.090Z,1003.46
2019-06-26T04:48:35.080Z,1003.48
2019-06-26T04:49:35.130Z,1003.53
2019-06-26T04:50:35.057Z,1003.51
2019-06-26T04:51:35.047Z,1003.49
2019-06-26T04:52:35.036Z,1003.54
2019-06-26T04:53:35.023Z,1003.63
2019-06-26T04:54:35.010Z,1003.63
2019-06-26T04:55:35.209Z,1003.60
2019-06-26T04:56:34.991Z,1003.60
2019-06-26T04:57:35.021Z,1003.53
2019-06-26T04:58:34.966Z,1003.56
2019-06-26T04:59:34.955Z,1003.48
2019-06-26T05:00:34.947Z,1003.51
2019-06-26T05:01:34.998Z,1003.56
2019-06-26T05:02:34.925Z,1003.52
2019-06-26T05:03:34.912Z,1003.53
2019-06-26T05:04:34.899Z,1003.59
2019-06-26T05:05:39.486Z,1003.61
2019-06-26T05:06:35.934Z,1003.56
2019-06-26T05:07:35.195Z,1003.63
2019-06-26T05:08:34.856Z,1003.65
2019-06-26T05:09:34.841Z,1003.56
2019-06-26T05:10:34.829Z,1003.57
2019-06-26T05:11:34.836Z,1003.50
2019-06-26T05:12:34.869Z,1003.55
2019-06-26T05:13:34.859Z,1003.51
2019-06-26T05:14:34.783Z,1003.57
2019-06-26T05:15:34.773Z,1003.51
2019-06-26T05:16:34.763Z,1003.59
2019-06-26T05:17:34.749Z,1003.54
2019-06-26T05:18:34.801Z,1003.57
2019-06-26T05:19:34.729Z,1003.50
2019-06-26T05:20:34.717Z,1003.54
2019-06-26T05:21:34.704Z,1003.54
2019-06-26T05:22:34.695Z,1003.53
2019-06-26T05:23:34.686Z,1003.56
2019-06-26T05:24:34.885Z,1003.58
2019-06-26T05:25:34.669Z,1003.59
2019-06-26T05:26:34.647Z,1003.62
2019-06-26T05:27:34.637Z,1003.64
2019-06-26T05:28:34.625Z,1003.65
2019-06-26T05:29:34.619Z,1003.61
2019-06-26T05:30:34.668Z,1003.55
2019-06-26T05:31:34.615Z,1003.62
2019-06-26T05:32:34.579Z,1003.54
2019-06-26T05:33:34.567Z,1003.59
2019-06-26T05:34:34.555Z,1003.65
2019-06-26T05:35:35.329Z,1003.65
2019-06-26T05:36:34.617Z,1003.63
2019-06-26T05:37:34.643Z,1003.66
2019-06-26T05:38:34.511Z,1003.70
2019-06-26T05:39:34.502Z,1003.71
2019-06-26T05:40:34.490Z,1003.71
2019-06-26T05:41:34.514Z,1003.70
2019-06-26T05:42:34.532Z,1003.75
2019-06-26T05:43:34.474Z,1003.78
2019-06-26T05:44:34.445Z,1003.76
2019-06-26T05:45:34.434Z,1003.77
2019-06-26T05:46:34.429Z,1003.74
2019-06-26T05:47:34.424Z,1003.77
2019-06-26T05:48:34.613Z,1003.79
2019-06-26T05:49:34.390Z,1003.75
2019-06-26T05:50:34.380Z,1003.77
2019-06-26T05:51:34.372Z,1003.76
2019-06-26T05:52:34.367Z,1003.80
2019-06-26T05:53:34.348Z,1003.83
2019-06-26T05:54:34.432Z,1003.73
2019-06-26T05:55:34.350Z,1003.79
2019-06-26T05:56:34.310Z,1003.73
2019-06-26T05:57:34.303Z,1003.72
2019-06-26T05:58:34.291Z,1003.79
2019-06-26T05:59:34.278Z,1003.67
2019-06-26T06:00:34.329Z,1003.83
2019-06-26T06:01:34.253Z,1003.75
2019-06-26T06:02:34.258Z,1003.75
2019-06-26T06:03:34.290Z,1003.84
2019-06-26T06:04:34.221Z,1003.81
2019-06-26T06:05:34.211Z,1003.89
2019-06-26T06:06:41.699Z,1003.79
2019-06-26T06:07:35.190Z,1003.89
2019-06-26T06:08:34.178Z,1003.85
2019-06-26T06:09:34.165Z,1003.88
2019-06-26T06:10:34.154Z,1003.83
2019-06-26T06:11:34.142Z,1003.85
2019-06-26T06:12:34.344Z,1003.82
2019-06-26T06:13:34.265Z,1003.90
2019-06-26T06:14:34.112Z,1003.85
2019-06-26T06:15:34.100Z,1003.88
2019-06-26T06:16:46.975Z,1003.89
2019-06-26T06:17:35.134Z,1003.90
2019-06-26T06:18:34.072Z,1003.94
2019-06-26T06:19:34.054Z,1003.89
2019-06-26T06:20:34.042Z,1003.88
2019-06-26T06:21:34.033Z,1003.86
2019-06-26T06:22:34.033Z,1003.93
2019-06-26T06:23:34.070Z,1003.84
2019-06-26T06:24:34.003Z,1003.95
2019-06-26T06:25:33.988Z,1003.88
2019-06-26T06:26:33.978Z,1003.95
2019-06-26T06:27:33.967Z,1003.98
2019-06-26T06:28:33.987Z,1004.00
2019-06-26T06:29:33.995Z,1003.94
2019-06-26T06:30:33.934Z,1004.04
2019-06-26T06:31:34.132Z,1004.01
2019-06-26T06:32:33.911Z,1004.00
2019-06-26T06:33:33.901Z,1004.02
2019-06-26T06:34:33.889Z,1004.07
2019-06-26T06:35:33.880Z,1004.06
2019-06-26T06:36:33.871Z,1003.99
2019-06-26T06:37:33.920Z,1004.04
2019-06-26T06:38:33.853Z,1004.06
2019-06-26T06:39:33.840Z,1004.08
2019-06-26T06:40:33.833Z,1004.08
2019-06-26T06:41:33.816Z,1004.09
2019-06-26T06:42:33.803Z,1004.11
2019-06-26T06:43:34.007Z,1004.09
2019-06-26T06:44:33.783Z,1004.10
2019-06-26T06:45:33.772Z,1004.14
2019-06-26T06:46:33.766Z,1004.15
2019-06-26T06:47:33.751Z,1004.06
2019-06-26T06:48:33.740Z,1004.11
2019-06-26T06:49:33.800Z,1004.08
2019-06-26T06:50:33.719Z,1004.09
2019-06-26T06:51:33.708Z,1004.17
2019-06-26T06:52:33.696Z,1004.15
2019-06-26T06:53:33.693Z,1004.16
2019-06-26T06:54:33.678Z,1004.20
2019-06-26T06:55:33.728Z,1004.20
2019-06-26T06:56:33.654Z,1004.22
2019-06-26T06:57:33.670Z,1004.26
2019-06-26T06:58:33.633Z,1004.25
2019-06-26T06:59:33.680Z,1004.26
2019-06-26T07:00:33.642Z,1004.20
2019-06-26T07:01:33.812Z,1004.25
2019-06-26T07:02:33.588Z,1004.25
2019-06-26T07:03:33.626Z,1004.25
2019-06-26T07:04:33.567Z,1004.22
2019-06-26T07:05:33.557Z,1004.26
2019-06-26T07:06:33.646Z,1004.17
2019-06-26T07:07:33.598Z,1004.22
2019-06-26T07:08:33.527Z,1004.21
2019-06-26T07:09:33.514Z,1004.15
2019-06-26T07:10:33.506Z,1004.24
2019-06-26T07:11:33.493Z,1004.21
2019-06-26T07:12:33.748Z,1004.25
2019-06-26T07:13:33.582Z,1004.21
2019-06-26T07:14:33.462Z,1004.21
2019-06-26T07:15:33.455Z,1004.22
2019-06-26T07:16:33.443Z,1004.22
2019-06-26T07:17:33.430Z,1004.21
2019-06-26T07:18:33.420Z,1004.26
2019-06-26T07:19:33.459Z,1004.25
2019-06-26T07:20:33.408Z,1004.21
2019-06-26T07:21:33.481Z,1004.21
2019-06-26T07:22:33.377Z,1004.29
2019-06-26T07:23:33.500Z,1004.30
2019-06-26T07:24:33.356Z,1004.27
2019-06-26T07:25:33.344Z,1004.25
2019-06-26T07:26:33.334Z,1004.26
2019-06-26T07:27:33.386Z,1004.19
2019-06-26T07:28:33.315Z,1004.22
2019-06-26T07:29:33.306Z,1004.25
2019-06-26T07:30:33.372Z,1004.23
2019-06-26T07:31:33.282Z,1004.23
2019-06-26T07:32:33.271Z,1004.27
2019-06-26T07:33:33.324Z,1004.27
2019-06-26T07:34:33.250Z,1004.20
2019-06-26T07:35:33.239Z,1004.31
2019-06-26T07:36:33.229Z,1004.30
2019-06-26T07:37:33.219Z,1004.23
2019-06-26T07:38:33.207Z,1004.25
2019-06-26T07:39:33.249Z,1004.29
2019-06-26T07:40:33.188Z,1004.31
2019-06-26T07:41:33.440Z,1004.23
2019-06-26T07:42:33.172Z,1004.28
2019-06-26T07:43:33.155Z,1004.31
2019-06-26T07:44:33.145Z,1004.26
2019-06-26T07:45:33.135Z,1004.27
2019-06-26T07:46:33.124Z,1004.30
2019-06-26T07:47:43.214Z,1004.27
2019-06-26T07:48:34.100Z,1004.24
2019-06-26T07:49:33.125Z,1004.25
2019-06-26T07:50:33.083Z,1004.28
2019-06-26T07:51:33.164Z,1004.25
2019-06-26T07:52:33.059Z,1004.43
2019-06-26T07:53:33.113Z,1004.38
2019-06-26T07:54:33.039Z,1004.32
2019-06-26T07:55:33.027Z,1004.41
2019-06-26T07:56:33.015Z,1004.33
2019-06-26T07:57:33.004Z,1004.42
2019-06-26T07:58:32.998Z,1004.41
2019-06-26T07:59:33.253Z,1004.41
2019-06-26T08:00:32.975Z,1004.43
2019-06-26T08:01:32.969Z,1004.39
2019-06-26T08:02:32.951Z,1004.37
2019-06-26T08:03:32.959Z,1004.33
2019-06-26T08:04:32.931Z,1004.25
2019-06-26T08:05:32.998Z,1004.28
2019-06-26T08:06:32.916Z,1004.31
2019-06-26T08:07:32.898Z,1004.32
2019-06-26T08:08:32.887Z,1004.40
2019-06-26T08:09:32.876Z,1004.37
2019-06-26T08:10:32.867Z,1004.37
2019-06-26T08:11:33.067Z,1004.37
2019-06-26T08:12:32.845Z,1004.39
2019-06-26T08:13:32.855Z,1004.37
2019-06-26T08:14:32.824Z,1004.39
2019-06-26T08:15:32.834Z,1004.38
2019-06-26T08:16:34.473Z,1004.37
2019-06-26T08:17:33.038Z,1004.42
2019-06-26T08:18:32.801Z,1004.38
2019-06-26T08:19:32.773Z,1004.41
2019-06-26T08:20:32.764Z,1004.43
2019-06-26T08:21:32.751Z,1004.33
2019-06-26T08:22:32.751Z,1004.35
2019-06-26T08:23:32.792Z,1004.34
2019-06-26T08:24:32.718Z,1004.37
2019-06-26T08:25:32.713Z,1004.40
2019-06-26T08:26:32.699Z,1004.37
2019-06-26T08:27:32.689Z,1004.42
2019-06-26T08:28:32.679Z,1004.43
2019-06-26T08:29:32.730Z,1004.39
2019-06-26T08:30:32.655Z,1004.45
2019-06-26T08:31:32.647Z,1004.45
2019-06-26T08:32:32.636Z,1004.52
2019-06-26T08:33:32.626Z,1004.46
2019-06-26T08:34:32.614Z,1004.42
2019-06-26T08:35:32.714Z,1004.39
2019-06-26T08:36:32.591Z,1004.42
2019-06-26T08:37:32.811Z,1004.44
2019-06-26T08:38:32.577Z,1004.46
2019-06-26T08:39:32.565Z,1004.40
2019-06-26T08:40:32.548Z,1004.48
2019-06-26T08:41:32.590Z,1004.51
2019-06-26T08:42:32.590Z,1004.49
2019-06-26T08:43:32.518Z,1004.55
2019-06-26T08:44:32.505Z,1004.53
2019-06-26T08:45:32.500Z,1004.47
2019-06-26T08:46:32.486Z,1004.52
2019-06-26T08:47:32.474Z,1004.48
2019-06-26T08:48:39.404Z,1004.51
2019-06-26T08:49:33.451Z,1004.52
2019-06-26T08:50:32.457Z,1004.52
2019-06-26T08:51:32.435Z,1004.54
2019-06-26T08:52:32.495Z,1004.55
2019-06-26T08:53:32.422Z,1004.45
2019-06-26T08:54:32.426Z,1004.56
2019-06-26T08:55:32.416Z,1004.54
2019-06-26T08:56:32.387Z,1004.54
2019-06-26T08:57:32.374Z,1004.56
2019-06-26T08:58:32.420Z,1004.51
2019-06-26T08:59:32.346Z,1004.59
2019-06-26T09:00:32.336Z,1004.58
2019-06-26T09:01:32.325Z,1004.57
2019-06-26T09:02:32.312Z,1004.64
2019-06-26T09:03:32.304Z,1004.57
2019-06-26T09:04:32.354Z,1004.52
2019-06-26T09:05:46.800Z,1004.57
2019-06-26T09:06:33.270Z,1004.48
2019-06-26T09:07:32.266Z,1004.55
2019-06-26T09:08:32.356Z,1004.56
2019-06-26T09:09:32.243Z,1004.54
2019-06-26T09:10:32.290Z,1004.56
2019-06-26T09:11:32.222Z,1004.48
2019-06-26T09:12:32.278Z,1004.49
2019-06-26T09:13:32.202Z,1004.51
2019-06-26T09:14:32.196Z,1004.51
2019-06-26T09:15:32.180Z,1004.56
2019-06-26T09:16:32.169Z,1004.56
2019-06-26T09:17:32.158Z,1004.56
2019-06-26T09:18:35.956Z,1004.62
2019-06-26T09:19:32.142Z,1004.58
2019-06-26T09:20:32.126Z,1004.57
2019-06-26T09:21:32.117Z,1004.53
2019-06-26T09:22:32.104Z,1004.58
2019-06-26T09:23:32.097Z,1004.54
2019-06-26T09:24:32.311Z,1004.57
2019-06-26T09:25:32.074Z,1004.57
2019-06-26T09:26:32.063Z,1004.58
2019-06-26T09:27:32.055Z,1004.55
2019-06-26T09:28:32.046Z,1004.53
2019-06-26T09:29:32.035Z,1004.55
2019-06-26T09:30:32.081Z,1004.56
2019-06-26T09:31:32.014Z,1004.55
2019-06-26T09:32:32.008Z,1004.55
2019-06-26T09:33:32.584Z,1004.55
2019-06-26T09:34:31.990Z,1004.62
2019-06-26T09:35:31.975Z,1004.58
2019-06-26T09:36:31.962Z,1004.58
2019-06-26T09:37:31.958Z,1004.59
2019-06-26T09:38:31.942Z,1004.58
2019-06-26T09:39:31.998Z,1004.56
2019-06-26T09:40:32.271Z,1004.58
2019-06-26T09:41:31.914Z,1004.56
2019-06-26T09:42:31.904Z,1004.53
2019-06-26T09:43:31.899Z,1004.54
2019-06-26T09:44:31.882Z,1004.61
2019-06-26T09:45:31.958Z,1004.57
2019-06-26T09:46:31.862Z,1004.67
2019-06-26T09:47:31.852Z,1004.62
2019-06-26T09:48:31.852Z,1004.59
2019-06-26T09:49:31.833Z,1004.65
2019-06-26T09:50:31.823Z,1004.57
2019-06-26T09:51:31.903Z,1004.61
2019-06-26T09:52:31.908Z,1004.51
2019-06-26T09:53:45.963Z,1004.57
2019-06-26T09:54:32.784Z,1004.57
2019-06-26T09:55:31.772Z,1004.62
2019-06-26T09:56:31.762Z,1004.58
2019-06-26T09:57:31.815Z,1004.62
2019-06-26T09:58:31.738Z,1004.55
2019-06-26T09:59:31.732Z,1004.62
2019-06-26T10:00:31.718Z,1004.63
2019-06-26T10:01:31.711Z,1004.60
2019-06-26T10:02:31.702Z,1004.59
2019-06-26T10:03:31.906Z,1004.56
2019-06-26T10:04:31.680Z,1004.56
2019-06-26T10:05:31.673Z,1004.61
2019-06-26T10:06:31.660Z,1004.66
2019-06-26T10:07:31.652Z,1004.62
2019-06-26T10:08:31.641Z,1004.63
2019-06-26T10:09:31.697Z,1004.63
2019-06-26T10:10:31.621Z,1004.54
2019-06-26T10:11:31.623Z,1004.56
2019-06-26T10:12:31.604Z,1004.58
2019-06-26T10:13:31.588Z,1004.66
2019-06-26T10:14:46.698Z,1004.62
2019-06-26T10:15:32.779Z,1004.68
2019-06-26T10:16:31.561Z,1004.59
2019-06-26T10:17:31.553Z,1004.68
2019-06-26T10:18:31.541Z,1004.66
2019-06-26T10:19:31.531Z,1004.62
2019-06-26T10:20:31.526Z,1004.63
2019-06-26T10:21:31.575Z,1004.66
2019-06-26T10:22:31.506Z,1004.62
2019-06-26T10:23:31.496Z,1004.63
2019-06-26T10:24:31.486Z,1004.67
2019-06-26T10:25:31.476Z,1004.58
2019-06-26T10:26:32.699Z,1004.61
2019-06-26T10:27:31.538Z,1004.57
2019-06-26T10:28:31.469Z,1004.63
2019-06-26T10:29:31.435Z,1004.66
2019-06-26T10:30:31.428Z,1004.70
2019-06-26T10:31:31.417Z,1004.66
2019-06-26T10:32:31.407Z,1004.71
2019-06-26T10:33:31.463Z,1004.62
2019-06-26T10:34:31.387Z,1004.65
2019-06-26T10:35:31.381Z,1004.65
2019-06-26T10:36:31.373Z,1004.73
2019-06-26T10:37:31.359Z,1004.67
2019-06-26T10:38:31.352Z,1004.63
2019-06-26T10:39:31.555Z,1004.68
2019-06-26T10:40:31.351Z,1004.67
2019-06-26T10:41:31.328Z,1004.68
2019-06-26T10:42:31.317Z,1004.65
2019-06-26T10:43:31.318Z,1004.62
2019-06-26T10:44:31.297Z,1004.61
2019-06-26T10:45:31.347Z,1004.57
2019-06-26T10:46:31.291Z,1004.61
2019-06-26T10:47:31.478Z,1004.68
2019-06-26T10:48:31.261Z,1004.77
2019-06-26T10:49:31.248Z,1004.66
2019-06-26T10:50:31.240Z,1004.67
2019-06-26T10:51:31.295Z,1004.61
2019-06-26T10:52:31.241Z,1004.59
2019-06-26T10:53:31.213Z,1004.66
2019-06-26T10:54:31.205Z,1004.61
2019-06-26T10:55:31.191Z,1004.67
2019-06-26T10:56:31.197Z,1004.60
2019-06-26T10:57:31.239Z,1004.62
2019-06-26T10:58:31.170Z,1004.58
2019-06-26T10:59:31.157Z,1004.68
2019-06-26T11:00:31.157Z,1004.65
2019-06-26T11:01:31.136Z,1004.61
2019-06-26T11:02:31.128Z,1004.69
2019-06-26T11:03:31.182Z,1004.67
2019-06-26T11:04:31.117Z,1004.67
2019-06-26T11:05:31.111Z,1004.56
2019-06-26T11:06:31.094Z,1004.63
2019-06-26T11:07:31.081Z,1004.60
2019-06-26T11:08:31.075Z,1004.59
2019-06-26T11:09:31.154Z,1004.64
2019-06-26T11:10:31.053Z,1004.56
2019-06-26T11:11:31.042Z,1004.53
2019-06-26T11:12:31.065Z,1004.52
2019-06-26T11:13:31.028Z,1004.49
2019-06-26T11:14:31.016Z,1004.52
2019-06-26T11:15:31.070Z,1004.54
2019-06-26T11:16:30.995Z,1004.52
2019-06-26T11:17:30.991Z,1004.51
2019-06-26T11:18:30.977Z,1004.45
2019-06-26T11:19:43.199Z,1004.45
2019-06-26T11:20:32.020Z,1004.41
2019-06-26T11:21:30.951Z,1004.47
2019-06-26T11:22:30.942Z,1004.44
2019-06-26T11:23:30.932Z,1004.46
2019-06-26T11:24:30.918Z,1004.49
2019-06-26T11:25:30.910Z,1004.42
2019-06-26T11:26:30.964Z,1004.44
2019-06-26T11:27:30.890Z,1004.51
2019-06-26T11:28:30.880Z,1004.47
2019-06-26T11:29:30.872Z,1004.52
2019-06-26T11:30:30.863Z,1004.41
2019-06-26T11:31:30.852Z,1004.50
2019-06-26T11:32:31.081Z,1004.34
2019-06-26T11:33:30.837Z,1004.45
2019-06-26T11:34:30.829Z,1004.37
2019-06-26T11:35:30.816Z,1004.52
2019-06-26T11:36:30.807Z,1004.47
2019-06-26T11:37:30.801Z,1004.43
2019-06-26T11:38:31.002Z,1004.51
2019-06-26T11:39:30.791Z,1004.57
2019-06-26T11:40:30.772Z,1004.50
2019-06-26T11:41:30.766Z,1004.52
2019-06-26T11:42:32.839Z,1004.43
2019-06-26T11:43:30.745Z,1004.44
2019-06-26T11:44:30.800Z,1004.43
2019-06-26T11:45:30.728Z,1004.47
2019-06-26T11:46:30.720Z,1004.44
2019-06-26T11:47:30.713Z,1004.46
2019-06-26T11:48:30.708Z,1004.37
2019-06-26T11:49:30.716Z,1004.46
2019-06-26T11:50:30.937Z,1004.50
2019-06-26T11:51:30.674Z,1004.39
2019-06-26T11:52:30.667Z,1004.45
2019-06-26T11:53:30.661Z,1004.45
2019-06-26T11:54:30.650Z,1004.47
2019-06-26T11:55:30.646Z,1004.44
2019-06-26T11:56:30.802Z,1004.42
2019-06-26T11:57:30.624Z,1004.38
2019-06-26T11:58:30.622Z,1004.41
2019-06-26T11:59:30.606Z,1004.47
2019-06-26T12:00:30.872Z,1004.39
2019-06-26T12:01:30.587Z,1004.39
2019-06-26T12:02:30.650Z,1004.40
2019-06-26T12:03:30.572Z,1004.39
2019-06-26T12:04:30.565Z,1004.39
2019-06-26T12:05:30.551Z,1004.38